createdAt,value
2019-03-20T00:01:59.106Z,0.04
2019-03-20T00:04:29.833Z,0.05
2019-03-20T00:07:00.379Z,0.06
2019-03-20T00:09:30.996Z,0.02
2019-03-20T00:12:01.547Z,-0.07
2019-03-20T00:14:32.079Z,-0.11
2019-03-20T00:17:04.051Z,-0.21
2019-03-20T00:19:34.725Z,-0.26
2019-03-20T00:22:05.200Z,-0.24
2019-03-20T00:24:35.729Z,-0.21
2019-03-20T00:27:06.363Z,-0.20
2019-03-20T00:29:36.897Z,-0.14
2019-03-20T00:32:07.454Z,-0.12
2019-03-20T00:34:37.975Z,-0.15
2019-03-20T00:37:09.541Z,-0.19
2019-03-20T00:39:40.041Z,-0.23
2019-03-20T00:42:10.821Z,-0.28
2019-03-20T00:44:41.344Z,-0.32
2019-03-20T00:47:11.895Z,-0.38
2019-03-20T00:49:42.415Z,-0.45
2019-03-20T00:52:12.957Z,-0.50
2019-03-20T00:54:43.487Z,-0.55
2019-03-20T00:57:14.027Z,-0.58
2019-03-20T00:59:44.552Z,-0.62
2019-03-20T01:02:15.113Z,-0.67
2019-03-20T01:04:46.662Z,-0.72
2019-03-20T01:07:17.145Z,-0.74
2019-03-20T01:09:47.596Z,-0.75
2019-03-20T01:12:18.073Z,-0.76
2019-03-20T01:14:48.521Z,-0.79
2019-03-20T01:17:19.010Z,-0.82
2019-03-20T01:19:49.450Z,-0.88
2019-03-20T01:22:19.952Z,-0.86
2019-03-20T01:24:50.461Z,-0.86
2019-03-20T01:27:20.959Z,-0.90
2019-03-20T01:29:51.417Z,-0.91
2019-03-20T01:32:21.921Z,-0.93
2019-03-20T01:34:52.446Z,-0.95
2019-03-20T01:37:22.925Z,-0.96
2019-03-20T01:39:53.380Z,-1.00
2019-03-20T01:42:23.870Z,-1.00
2019-03-20T01:44:54.397Z,-0.97
2019-03-20T01:47:25.143Z,-0.88
2019-03-20T01:49:55.607Z,-0.83
2019-03-20T01:52:26.153Z,-0.78
2019-03-20T01:54:56.581Z,-0.78
2019-03-20T01:57:27.126Z,-0.76
2019-03-20T01:59:57.657Z,-0.79
2019-03-20T02:02:28.209Z,-0.71
2019-03-20T02:04:58.667Z,-0.73
2019-03-20T02:07:29.158Z,-0.86
2019-03-20T02:09:59.688Z,-0.91
2019-03-20T02:12:30.243Z,-0.93
2019-03-20T02:15:00.687Z,-0.95
2019-03-20T02:17:31.216Z,-0.99
2019-03-20T02:20:01.748Z,-1.05
2019-03-20T02:22:32.300Z,-0.93
2019-03-20T02:25:04.647Z,-0.97
2019-03-20T02:27:35.139Z,-0.93
2019-03-20T02:30:11.911Z,-0.73
2019-03-20T02:32:42.461Z,-0.74
2019-03-20T02:35:13.268Z,-0.70
2019-03-20T02:37:43.820Z,-0.63
2019-03-20T02:40:15.129Z,-0.56
2019-03-20T02:42:45.747Z,-0.60
2019-03-20T02:45:16.840Z,-0.58
2019-03-20T02:47:47.401Z,-0.71
2019-03-20T02:50:17.863Z,-0.74
2019-03-20T02:52:48.343Z,-0.81
2019-03-20T02:55:18.860Z,-0.88
2019-03-20T02:57:49.335Z,-0.92
2019-03-20T03:00:20.823Z,-0.98
2019-03-20T03:03:11.486Z,-1.00
2019-03-20T03:05:42.001Z,-1.03
2019-03-20T03:08:12.554Z,-1.06
2019-03-20T03:10:43.015Z,-1.14
2019-03-20T03:13:13.504Z,-1.12
2019-03-20T03:15:43.981Z,-1.12
2019-03-20T03:18:14.478Z,-1.19
2019-03-20T03:20:46.005Z,-1.23
2019-03-20T03:23:16.556Z,-1.29
2019-03-20T03:25:49.926Z,-1.28
2019-03-20T03:28:19.324Z,-1.32
2019-03-20T03:30:49.848Z,-1.24
2019-03-20T03:33:20.504Z,-1.20
2019-03-20T03:35:51.127Z,-1.19
2019-03-20T03:38:21.625Z,-1.12
2019-03-20T03:40:52.079Z,-1.27
2019-03-20T03:43:24.384Z,-1.27
2019-03-20T03:45:54.823Z,-1.35
2019-03-20T03:48:25.353Z,-1.29
2019-03-20T03:50:55.798Z,-1.38
2019-03-20T03:53:26.292Z,-1.52
2019-03-20T03:55:56.829Z,-1.51
2019-03-20T03:58:27.310Z,-1.51
2019-03-20T04:00:57.807Z,-1.53
2019-03-20T04:03:28.262Z,-1.43
2019-03-20T04:05:58.804Z,-1.46
2019-03-20T04:08:29.412Z,-1.49
2019-03-20T04:10:59.844Z,-1.52
2019-03-20T04:13:30.398Z,-1.63
2019-03-20T04:16:01.010Z,-1.63
2019-03-20T04:18:31.543Z,-1.64
2019-03-20T04:21:02.004Z,-1.64
2019-03-20T04:23:32.574Z,-1.66
2019-03-20T04:26:03.021Z,-1.65
2019-03-20T04:28:33.514Z,-1.67
2019-03-20T04:31:04.086Z,-1.65
2019-03-20T04:33:34.577Z,-1.65
2019-03-20T04:36:05.111Z,-1.67
2019-03-20T04:38:35.648Z,-1.69
2019-03-20T04:41:06.107Z,-1.63
2019-03-20T04:43:36.670Z,-1.65
2019-03-20T04:46:07.217Z,-1.65
2019-03-20T04:48:37.735Z,-1.62
2019-03-20T04:51:08.191Z,-1.62
2019-03-20T04:53:38.726Z,-1.51
2019-03-20T04:56:09.189Z,-1.43
2019-03-20T04:58:39.676Z,-1.45
2019-03-20T05:01:10.190Z,-1.33
2019-03-20T05:03:40.666Z,-1.35
2019-03-20T05:06:11.186Z,-1.35
2019-03-20T05:08:41.667Z,-1.25
2019-03-20T05:11:12.116Z,-1.28
2019-03-20T05:13:42.691Z,-1.27
2019-03-20T05:16:13.143Z,-1.24
2019-03-20T05:18:43.701Z,-1.21
2019-03-20T05:21:14.170Z,-1.17
2019-03-20T05:23:44.655Z,-1.10
2019-03-20T05:26:15.178Z,-1.10
2019-03-20T05:28:45.734Z,-1.07
2019-03-20T05:31:16.252Z,-1.04
2019-03-20T05:33:47.809Z,-1.01
2019-03-20T05:36:18.258Z,-0.94
2019-03-20T05:38:48.747Z,-0.89
2019-03-20T05:41:19.261Z,-0.74
2019-03-20T05:43:49.817Z,-0.74
2019-03-20T05:46:20.355Z,-0.68
2019-03-20T05:48:51.001Z,-0.60
2019-03-20T05:51:21.528Z,-0.51
2019-03-20T05:53:52.090Z,-0.39
2019-03-20T05:56:22.553Z,-0.32
2019-03-20T05:58:53.117Z,-0.32
2019-03-20T06:01:23.776Z,-0.21
2019-03-20T06:03:54.324Z,-0.09
2019-03-20T06:06:24.785Z,-0.01
2019-03-20T06:08:55.348Z,0.06
2019-03-20T06:11:25.791Z,-0.02
2019-03-20T06:13:56.268Z,0.06
2019-03-20T06:16:26.791Z,0.23
2019-03-20T06:18:57.328Z,0.28
2019-03-20T06:21:28.144Z,0.34
2019-03-20T06:23:58.609Z,0.36
2019-03-20T06:26:29.114Z,0.45
2019-03-20T06:28:59.599Z,0.51
2019-03-20T06:31:30.109Z,0.56
2019-03-20T06:34:00.653Z,0.64
2019-03-20T06:36:31.177Z,0.70
2019-03-20T06:39:01.846Z,0.81
2019-03-20T06:41:32.886Z,0.90
2019-03-20T06:44:03.433Z,0.97
2019-03-20T06:46:33.869Z,1.05
2019-03-20T06:49:04.462Z,1.12
2019-03-20T06:51:36.605Z,1.16
2019-03-20T06:54:08.115Z,1.20
2019-03-20T06:56:38.550Z,1.30
2019-03-20T06:59:29.995Z,1.38
2019-03-20T07:02:03.614Z,1.45
2019-03-20T07:04:55.050Z,1.52
2019-03-20T07:07:43.676Z,1.56
2019-03-20T07:10:25.236Z,1.68
2019-03-20T07:12:55.748Z,1.80
2019-03-20T07:15:26.298Z,1.88
2019-03-20T07:17:56.739Z,1.99
2019-03-20T07:20:27.195Z,2.09
2019-03-20T07:22:57.703Z,2.19
2019-03-20T07:25:28.162Z,2.25
2019-03-20T07:27:58.683Z,2.36
2019-03-20T07:30:29.226Z,2.43
2019-03-20T07:32:59.838Z,2.53
2019-03-20T07:35:30.311Z,2.62
2019-03-20T07:38:00.833Z,2.69
2019-03-20T07:40:31.382Z,2.79
2019-03-20T07:43:08.632Z,2.93
2019-03-20T07:45:34.124Z,3.08
2019-03-20T07:48:04.608Z,3.18
2019-03-20T07:50:35.379Z,3.28
2019-03-20T07:53:05.799Z,3.45
2019-03-20T07:55:36.282Z,3.53
2019-03-20T07:58:06.754Z,3.64
2019-03-20T08:00:37.311Z,3.74
2019-03-20T08:03:07.754Z,3.88
2019-03-20T08:05:38.306Z,3.98
2019-03-20T08:08:08.756Z,4.07
2019-03-20T08:10:39.286Z,4.26
2019-03-20T08:13:09.734Z,4.43
2019-03-20T08:15:40.272Z,4.62
2019-03-20T08:18:10.767Z,4.73
2019-03-20T08:20:41.244Z,4.86
2019-03-20T08:23:11.683Z,5.02
2019-03-20T08:25:42.229Z,5.05
2019-03-20T08:28:12.729Z,5.16
2019-03-20T08:30:43.268Z,5.23
2019-03-20T08:33:13.757Z,5.33
2019-03-20T08:35:44.230Z,5.45
2019-03-20T08:38:18.702Z,5.53
2019-03-20T08:40:46.834Z,5.61
2019-03-20T08:43:17.255Z,5.72
2019-03-20T08:45:47.724Z,5.89
2019-03-20T08:48:18.165Z,5.98
2019-03-20T08:50:48.693Z,6.05
2019-03-20T08:53:20.190Z,6.17
2019-03-20T08:55:50.737Z,6.22
2019-03-20T08:58:21.444Z,6.25
2019-03-20T09:00:51.908Z,6.43
2019-03-20T09:03:22.394Z,6.54
2019-03-20T09:05:52.929Z,6.62
2019-03-20T09:08:29.411Z,6.73
2019-03-20T09:10:55.556Z,6.83
2019-03-20T09:13:25.989Z,7.03
2019-03-20T09:15:56.445Z,7.08
2019-03-20T09:18:26.938Z,7.16
2019-03-20T09:20:57.767Z,7.14
2019-03-20T09:23:28.178Z,7.20
2019-03-20T09:25:58.644Z,7.22
2019-03-20T09:28:29.056Z,7.31
2019-03-20T09:30:59.530Z,7.35
2019-03-20T09:33:30.011Z,7.50
2019-03-20T09:36:00.483Z,7.69
2019-03-20T09:38:42.721Z,7.71
2019-03-20T09:41:04.201Z,7.80
2019-03-20T09:43:34.684Z,7.88
2019-03-20T09:46:06.133Z,7.94
2019-03-20T09:48:36.956Z,8.14
2019-03-20T09:51:07.419Z,8.12
2019-03-20T09:53:39.269Z,8.18
2019-03-20T09:56:09.719Z,8.08
2019-03-20T09:58:40.217Z,8.20
2019-03-20T10:01:10.702Z,8.11
2019-03-20T10:03:41.126Z,8.35
2019-03-20T10:06:11.579Z,8.39
2019-03-20T10:08:41.989Z,8.40
2019-03-20T10:11:12.526Z,8.45
2019-03-20T10:13:42.943Z,8.49
2019-03-20T10:16:13.459Z,8.77
2019-03-20T10:18:43.899Z,8.86
2019-03-20T10:21:14.433Z,8.97
2019-03-20T10:23:44.851Z,8.88
2019-03-20T10:26:15.311Z,8.94
2019-03-20T10:28:45.717Z,9.04
2019-03-20T10:31:16.184Z,8.94
2019-03-20T10:33:46.593Z,8.93
2019-03-20T10:36:17.048Z,8.93
2019-03-20T10:38:48.684Z,8.95
2019-03-20T10:41:19.379Z,9.03
2019-03-20T10:43:52.251Z,9.13
2019-03-20T10:46:22.020Z,9.14
2019-03-20T10:48:52.755Z,9.21
2019-03-20T10:51:23.734Z,9.29
2019-03-20T10:53:54.315Z,9.29
2019-03-20T10:56:24.923Z,9.39
2019-03-20T10:58:55.537Z,9.55
2019-03-20T11:01:26.203Z,9.63
2019-03-20T11:03:56.690Z,9.61
2019-03-20T11:06:27.144Z,9.67
2019-03-20T11:08:57.555Z,9.66
2019-03-20T11:11:28.022Z,9.61
2019-03-20T11:13:58.435Z,9.68
2019-03-20T11:16:28.907Z,9.76
2019-03-20T11:18:59.326Z,9.93
2019-03-20T11:21:29.841Z,9.99
2019-03-20T11:24:00.254Z,9.96
2019-03-20T11:26:31.804Z,10.02
2019-03-20T11:29:02.225Z,9.99
2019-03-20T11:31:33.018Z,9.97
2019-03-20T11:34:03.501Z,9.95
2019-03-20T11:36:34.107Z,9.97
2019-03-20T11:39:07.953Z,10.04
2019-03-20T11:41:38.497Z,10.25
2019-03-20T11:44:08.998Z,10.37
2019-03-20T11:46:39.475Z,10.44
2019-03-20T11:49:10.344Z,10.43
2019-03-20T11:51:40.815Z,10.44
2019-03-20T11:54:11.234Z,10.47
2019-03-20T11:56:41.855Z,10.48
2019-03-20T11:59:12.270Z,10.64
2019-03-20T12:01:43.107Z,10.98
2019-03-20T12:04:13.542Z,10.97
2019-03-20T12:06:44.002Z,11.20
2019-03-20T12:09:14.419Z,11.41
2019-03-20T12:11:46.205Z,11.56
2019-03-20T12:14:16.834Z,11.58
2019-03-20T12:16:47.382Z,11.46
2019-03-20T12:19:17.857Z,11.55
2019-03-20T12:21:48.345Z,11.75
2019-03-20T12:24:18.834Z,13.30
2019-03-20T12:26:49.378Z,16.69
2019-03-20T12:29:19.802Z,17.23
2019-03-20T12:31:50.342Z,19.29
2019-03-20T12:34:20.771Z,20.87
2019-03-20T12:36:51.302Z,19.40
2019-03-20T12:39:22.787Z,20.68
2019-03-20T12:41:53.332Z,19.87
2019-03-20T12:44:23.749Z,20.24
2019-03-20T12:46:54.284Z,19.13
2019-03-20T12:49:24.994Z,19.41
2019-03-20T12:51:55.539Z,20.79
2019-03-20T12:54:25.965Z,20.85
2019-03-20T12:56:56.429Z,20.69
2019-03-20T12:59:26.859Z,19.92
2019-03-20T13:01:57.330Z,20.17
2019-03-20T13:04:27.739Z,20.67
2019-03-20T13:06:58.273Z,22.15
2019-03-20T13:09:28.777Z,24.05
2019-03-20T13:11:59.278Z,24.57
2019-03-20T13:14:29.696Z,22.17
2019-03-20T13:17:00.375Z,22.80
2019-03-20T13:19:31.025Z,21.19
2019-03-20T13:22:01.493Z,21.82
2019-03-20T13:24:31.922Z,20.39
2019-03-20T13:27:02.384Z,22.58
2019-03-20T13:29:32.799Z,20.96
2019-03-20T13:32:03.818Z,22.18
2019-03-20T13:34:34.410Z,24.25
2019-03-20T13:37:04.956Z,24.63
2019-03-20T13:39:35.447Z,26.26
2019-03-20T13:42:05.982Z,25.44
2019-03-20T13:44:36.476Z,27.14
2019-03-20T13:47:08.228Z,24.35
2019-03-20T13:49:38.901Z,23.83
2019-03-20T13:52:10.492Z,25.82
2019-03-20T13:54:41.000Z,27.59
2019-03-20T13:57:11.466Z,28.39
2019-03-20T13:59:41.953Z,27.08
2019-03-20T14:02:12.421Z,25.80
2019-03-20T14:04:42.847Z,27.03
2019-03-20T14:07:13.372Z,27.86
2019-03-20T14:09:43.868Z,25.97
2019-03-20T14:12:14.414Z,25.73
2019-03-20T14:14:44.835Z,27.19
2019-03-20T14:17:15.366Z,24.43
2019-03-20T14:19:45.795Z,23.17
2019-03-20T14:22:16.258Z,25.26
2019-03-20T14:24:46.687Z,26.84
2019-03-20T14:27:18.300Z,27.29
2019-03-20T14:29:48.721Z,28.70
2019-03-20T14:32:19.176Z,27.26
2019-03-20T14:34:49.677Z,26.89
2019-03-20T14:37:20.150Z,24.59
2019-03-20T14:39:50.744Z,25.36
2019-03-20T14:42:21.224Z,26.50
2019-03-20T14:44:51.876Z,25.27
2019-03-20T14:47:22.463Z,25.72
2019-03-20T14:49:52.969Z,27.76
2019-03-20T14:52:23.568Z,29.11
2019-03-20T14:54:54.028Z,28.47
2019-03-20T14:57:24.583Z,26.97
2019-03-20T14:59:55.071Z,25.59
2019-03-20T15:02:27.200Z,25.14
2019-03-20T15:04:58.607Z,24.11
2019-03-20T15:07:28.671Z,25.40
2019-03-20T15:09:59.155Z,20.61
2019-03-20T15:12:29.696Z,18.06
2019-03-20T15:15:00.292Z,16.38
2019-03-20T15:17:30.820Z,15.50
2019-03-20T15:20:02.310Z,14.91
2019-03-20T15:22:32.775Z,14.84
2019-03-20T15:25:03.213Z,14.70
2019-03-20T15:27:33.673Z,14.44
2019-03-20T15:30:13.121Z,14.38
2019-03-20T15:32:43.733Z,14.35
2019-03-20T15:35:14.156Z,14.01
2019-03-20T15:37:44.718Z,13.77
2019-03-20T15:40:21.179Z,13.68
2019-03-20T15:42:51.637Z,13.62
2019-03-20T15:45:22.197Z,13.44
2019-03-20T15:47:52.682Z,13.44
2019-03-20T15:50:29.425Z,13.62
2019-03-20T15:52:59.953Z,13.48
2019-03-20T15:55:36.113Z,13.30
2019-03-20T15:58:06.643Z,13.41
2019-03-20T16:00:37.131Z,13.19
2019-03-20T16:03:23.033Z,12.75
2019-03-20T16:05:53.541Z,12.55
2019-03-20T16:08:24.142Z,12.51
2019-03-20T16:10:54.590Z,12.64
2019-03-20T16:13:25.049Z,12.63
2019-03-20T16:15:55.480Z,12.61
2019-03-20T16:18:27.021Z,12.45
2019-03-20T16:20:57.483Z,12.43
2019-03-20T16:23:27.964Z,12.44
2019-03-20T16:25:58.383Z,12.44
2019-03-20T16:28:28.847Z,12.38
2019-03-20T16:30:59.292Z,12.20
2019-03-20T16:33:29.978Z,12.01
2019-03-20T16:36:00.419Z,11.86
2019-03-20T16:38:31.808Z,11.74
2019-03-20T16:41:02.299Z,11.60
2019-03-20T16:43:32.768Z,11.41
2019-03-20T16:46:03.257Z,11.24
2019-03-20T16:48:33.811Z,11.01
2019-03-20T16:51:04.394Z,10.76
2019-03-20T16:53:34.990Z,10.63
2019-03-20T16:56:05.495Z,10.49
2019-03-20T16:58:36.028Z,10.32
2019-03-20T17:01:06.529Z,10.21
2019-03-20T17:03:37.127Z,10.07
2019-03-20T17:06:07.574Z,9.93
2019-03-20T17:08:38.429Z,9.81
2019-03-20T17:11:08.937Z,9.73
2019-03-20T17:13:39.763Z,9.64
2019-03-20T17:16:10.213Z,9.52
2019-03-20T17:18:40.935Z,9.33
2019-03-20T17:21:11.518Z,9.27
2019-03-20T17:23:46.565Z,9.19
2019-03-20T17:26:17.011Z,9.27
2019-03-20T17:28:47.471Z,9.22
2019-03-20T17:31:17.976Z,9.14
2019-03-20T17:33:48.445Z,9.07
2019-03-20T17:36:18.904Z,9.07
2019-03-20T17:38:49.399Z,9.09
2019-03-20T17:41:19.928Z,9.09
2019-03-20T17:43:50.393Z,9.10
2019-03-20T17:46:20.966Z,9.14
2019-03-20T17:48:51.490Z,9.22
2019-03-20T17:51:22.064Z,9.26
2019-03-20T17:53:52.678Z,9.30
2019-03-20T17:56:23.195Z,9.30
2019-03-20T17:58:53.751Z,9.36
2019-03-20T18:01:25.835Z,9.36
2019-03-20T18:03:56.308Z,9.37
2019-03-20T18:06:26.892Z,9.36
2019-03-20T18:08:57.369Z,9.29
2019-03-20T18:11:27.819Z,9.25
2019-03-20T18:13:58.359Z,9.19
2019-03-20T18:16:28.869Z,9.09
2019-03-20T18:18:59.412Z,8.96
2019-03-20T18:21:29.828Z,8.81
2019-03-20T18:24:02.071Z,8.67
2019-03-20T18:26:32.604Z,8.58
2019-03-20T18:29:03.155Z,8.44
2019-03-20T18:31:33.633Z,8.27
2019-03-20T18:34:04.148Z,8.14
2019-03-20T18:36:34.658Z,8.08
2019-03-20T18:39:07.357Z,8.07
2019-03-20T18:41:37.812Z,8.07
2019-03-20T18:44:08.349Z,8.13
2019-03-20T18:46:38.861Z,8.22
2019-03-20T18:49:10.193Z,8.27
2019-03-20T18:51:42.103Z,8.35
2019-03-20T18:54:12.548Z,8.34
2019-03-20T18:56:43.001Z,8.38
2019-03-20T18:59:13.432Z,8.45
2019-03-20T19:01:43.875Z,8.52
2019-03-20T19:04:14.352Z,8.62
2019-03-20T19:06:44.950Z,8.67
2019-03-20T19:09:15.475Z,8.67
2019-03-20T19:11:46.084Z,8.69
2019-03-20T19:14:16.804Z,8.72
2019-03-20T19:16:47.339Z,8.80
2019-03-20T19:19:17.786Z,8.86
2019-03-20T19:21:48.366Z,8.93
2019-03-20T19:24:18.805Z,8.98
2019-03-20T19:26:49.395Z,8.96
2019-03-20T19:29:19.917Z,8.98
2019-03-20T19:31:50.361Z,9.03
2019-03-20T19:34:20.881Z,9.04
2019-03-20T19:36:51.321Z,9.06
2019-03-20T19:39:21.756Z,9.05
2019-03-20T19:41:52.211Z,9.07
2019-03-20T19:44:22.801Z,9.08
2019-03-20T19:46:53.275Z,9.07
2019-03-20T19:49:23.863Z,9.11
2019-03-20T19:51:54.414Z,9.15
2019-03-20T19:54:25.051Z,9.12
2019-03-20T19:56:56.096Z,9.14
2019-03-20T19:59:27.076Z,9.09
2019-03-20T20:01:59.468Z,9.06
2019-03-20T20:04:30.115Z,9.05
2019-03-20T20:07:01.114Z,9.09
2019-03-20T20:09:31.915Z,9.09
2019-03-20T20:12:02.391Z,9.09
2019-03-20T20:14:32.902Z,9.12
2019-03-20T20:17:03.503Z,9.13
2019-03-20T20:19:34.011Z,9.16
2019-03-20T20:22:04.552Z,9.20
2019-03-20T20:24:35.052Z,9.22
2019-03-20T20:27:10.877Z,9.26
2019-03-20T20:29:42.683Z,9.26
2019-03-20T20:32:13.418Z,9.28
2019-03-20T20:34:43.938Z,9.30
2019-03-20T20:37:15.513Z,9.35
2019-03-20T20:39:45.998Z,9.34
2019-03-20T20:42:16.548Z,9.38
2019-03-20T20:44:46.987Z,9.39
2019-03-20T20:47:17.450Z,9.41
2019-03-20T20:49:47.878Z,9.43
2019-03-20T20:52:19.912Z,9.44
2019-03-20T20:54:52.096Z,9.44
2019-03-20T20:57:23.157Z,9.45
2019-03-20T20:59:53.591Z,9.48
2019-03-20T21:02:24.033Z,9.49
2019-03-20T21:04:54.532Z,9.46
2019-03-20T21:07:26.616Z,9.50
2019-03-20T21:09:57.167Z,9.51
2019-03-20T21:12:27.643Z,9.49
2019-03-20T21:14:58.132Z,9.50
2019-03-20T21:17:31.874Z,9.49
2019-03-20T21:20:02.376Z,9.51
2019-03-20T21:22:36.156Z,9.49
2019-03-20T21:25:06.713Z,9.48
2019-03-20T21:28:06.381Z,9.51
2019-03-20T21:30:49.394Z,9.49
2019-03-20T21:33:27.125Z,9.47
2019-03-20T21:36:20.136Z,9.48
2019-03-20T21:38:51.562Z,9.50
2019-03-20T21:41:31.674Z,9.45
2019-03-20T21:44:25.153Z,9.47
2019-03-20T21:47:34.263Z,9.49
2019-03-20T21:50:21.339Z,9.50
2019-03-20T21:52:51.784Z,9.47
2019-03-20T21:55:28.076Z,9.50
2019-03-20T21:58:13.643Z,9.53
2019-03-20T22:00:50.026Z,9.53
2019-03-20T22:03:20.621Z,9.56
2019-03-20T22:06:06.527Z,9.56
2019-03-20T22:08:37.037Z,9.57
2019-03-20T22:11:16.086Z,9.54
2019-03-20T22:13:52.487Z,9.55
2019-03-20T22:16:35.294Z,9.54
2019-03-20T22:19:34.724Z,9.51
2019-03-20T22:22:44.681Z,9.48
2019-03-20T22:25:46.960Z,9.49
2019-03-20T22:28:47.770Z,9.47
2019-03-20T22:31:18.541Z,9.47
2019-03-20T22:34:25.636Z,9.49
2019-03-20T22:36:56.153Z,9.47
2019-03-20T22:39:57.950Z,9.42
2019-03-20T22:42:54.488Z,9.36
2019-03-20T22:45:39.994Z,9.33
2019-03-20T22:48:13.784Z,9.32
2019-03-20T22:51:05.676Z,9.31
2019-03-20T22:53:54.272Z,9.31
2019-03-20T22:56:57.051Z,9.28
2019-03-20T22:59:27.640Z,9.27
2019-03-20T23:02:07.863Z,9.30
2019-03-20T23:04:41.624Z,9.34
2019-03-20T23:07:12.074Z,9.34
2019-03-20T23:09:42.607Z,9.36
2019-03-20T23:12:14.065Z,9.34
2019-03-20T23:14:44.653Z,9.36
2019-03-20T23:17:15.268Z,9.29
2019-03-20T23:19:46.619Z,9.29
2019-03-20T23:22:17.187Z,9.31
2019-03-20T23:24:47.634Z,9.29
2019-03-20T23:27:24.126Z,9.33
2019-03-20T23:29:54.637Z,9.33
2019-03-20T23:32:25.329Z,9.36
2019-03-20T23:34:55.833Z,9.34
2019-03-20T23:37:26.581Z,9.31
2019-03-20T23:39:57.079Z,9.36
2019-03-20T23:42:27.613Z,9.34
2019-03-20T23:44:58.107Z,9.34
2019-03-20T23:47:31.912Z,9.34
2019-03-20T23:50:02.507Z,9.31
2019-03-20T23:52:33.138Z,9.32
2019-03-20T23:55:04.593Z,9.29
2019-03-20T23:57:35.118Z,9.29
